<?xml version="1.0" encoding="UTF-8" standalone="no" ?>
<gpx xmlns="http://www.topografix.com/GPX/1/1" xmlns:xsi="http://www.w3.org/2001/XMLSchema-instance" xsi:schemaLocation="http://www.topografix.com/GPX/1/1 http://www.topografix.com/GPX/1/1/gpx.xsd" version="1.1" creator="VisuGPX - https://www.visugpx.com">
  <metadata>
    <name>Argentina</name>
    <desc><![CDATA[Downloaded from eMap Software Version 2.75]]></desc>
  </metadata>
  <trk>
    <name><![CDATA[Argentina_33]]></name>
    <extensions>
      <line xmlns="http://www.topografix.com/GPX/gpx_style/0/2">
        <color>ff0000</color>
        <opacity>0.78</opacity>
        <width>0.6000</width>
      </line>
    </extensions>
    <trkseg>
      <trkpt lat="-27.97945" lon="-63.7881">
        <ele>188.075073</ele>
        <time>2005-12-12T18:46:55Z</time>
      </trkpt>
      <trkpt lat="-27.97973" lon="-63.78767">
        <ele>188.075073</ele>
        <time>2005-12-12T18:46:57Z</time>
      </trkpt>
      <trkpt lat="-27.98252" lon="-63.78257">
        <ele>188.075073</ele>
        <time>2005-12-12T18:47:19Z</time>
      </trkpt>
      <trkpt lat="-27.98578" lon="-63.77662">
        <ele>188.075073</ele>
        <time>2005-12-12T18:47:45Z</time>
      </trkpt>
      <trkpt lat="-27.98849" lon="-63.7719">
        <ele>188.075073</ele>
        <time>2005-12-12T18:48:06Z</time>
      </trkpt>
      <trkpt lat="-27.99587" lon="-63.76126">
        <ele>181.826416</ele>
        <time>2005-12-12T18:48:56Z</time>
      </trkpt>
      <trkpt lat="-28.00261" lon="-63.75173">
        <ele>180.384521</ele>
        <time>2005-12-12T18:49:41Z</time>
      </trkpt>
      <trkpt lat="-28.00582" lon="-63.74688">
        <ele>179.903809</ele>
        <time>2005-12-12T18:50:04Z</time>
      </trkpt>
      <trkpt lat="-28.00735" lon="-63.74469">
        <ele>179.903809</ele>
        <time>2005-12-12T18:50:16Z</time>
      </trkpt>
      <trkpt lat="-28.00924" lon="-63.74201">
        <ele>177.981201</ele>
        <time>2005-12-12T18:50:33Z</time>
      </trkpt>
      <trkpt lat="-28.00969" lon="-63.74139">
        <ele>177.981201</ele>
        <time>2005-12-12T18:50:38Z</time>
      </trkpt>
      <trkpt lat="-28.00986" lon="-63.74109">
        <ele>177.981201</ele>
        <time>2005-12-12T18:50:42Z</time>
      </trkpt>
      <trkpt lat="-28.00967" lon="-63.74094">
        <ele>174.135864</ele>
        <time>2005-12-12T18:50:53Z</time>
      </trkpt>
      <trkpt lat="-28.00954" lon="-63.74117">
        <ele>161.158203</ele>
        <time>2005-12-12T18:51:50Z</time>
      </trkpt>
      <trkpt lat="-28.00941" lon="-63.74109">
        <ele>152.986938</ele>
        <time>2005-12-12T18:52:26Z</time>
      </trkpt>
      <trkpt lat="-28.00874" lon="-63.74053">
        <ele>149.622314</ele>
        <time>2005-12-12T18:52:40Z</time>
      </trkpt>
      <trkpt lat="-28.00771" lon="-63.73961">
        <ele>146.738403</ele>
        <time>2005-12-12T18:52:52Z</time>
      </trkpt>
      <trkpt lat="-28.00679" lon="-63.73856">
        <ele>145.7771</ele>
        <time>2005-12-12T18:53:01Z</time>
      </trkpt>
      <trkpt lat="-28.00625" lon="-63.73727">
        <ele>145.7771</ele>
        <time>2005-12-12T18:53:09Z</time>
      </trkpt>
      <trkpt lat="-28.00589" lon="-63.73493">
        <ele>148.18042</ele>
        <time>2005-12-12T18:53:21Z</time>
      </trkpt>
      <trkpt lat="-28.00535" lon="-63.73218">
        <ele>150.103027</ele>
        <time>2005-12-12T18:53:34Z</time>
      </trkpt>
      <trkpt lat="-28.0043" lon="-63.72772">
        <ele>151.064209</ele>
        <time>2005-12-12T18:53:54Z</time>
      </trkpt>
      <trkpt lat="-28.00291" lon="-63.72154">
        <ele>149.622314</ele>
        <time>2005-12-12T18:54:21Z</time>
      </trkpt>
      <trkpt lat="-28.00188" lon="-63.71695">
        <ele>151.064209</ele>
        <time>2005-12-12T18:54:43Z</time>
      </trkpt>
      <trkpt lat="-28.00115" lon="-63.71379">
        <ele>151.544922</ele>
        <time>2005-12-12T18:54:58Z</time>
      </trkpt>
      <trkpt lat="-28.00042" lon="-63.71064">
        <ele>151.544922</ele>
        <time>2005-12-12T18:55:11Z</time>
      </trkpt>
      <trkpt lat="-27.99904" lon="-63.70463">
        <ele>152.986938</ele>
        <time>2005-12-12T18:55:36Z</time>
      </trkpt>
      <trkpt lat="-27.99816" lon="-63.70073">
        <ele>152.506348</ele>
        <time>2005-12-12T18:55:54Z</time>
      </trkpt>
      <trkpt lat="-27.99716" lon="-63.69624">
        <ele>153.948364</ele>
        <time>2005-12-12T18:56:12Z</time>
      </trkpt>
      <trkpt lat="-27.99512" lon="-63.68736">
        <ele>155.390259</ele>
        <time>2005-12-12T18:56:46Z</time>
      </trkpt>
      <trkpt lat="-27.99289" lon="-63.67734">
        <ele>153.467651</ele>
        <time>2005-12-12T18:57:25Z</time>
      </trkpt>
      <trkpt lat="-27.99149" lon="-63.67131">
        <ele>155.390259</ele>
        <time>2005-12-12T18:57:49Z</time>
      </trkpt>
      <trkpt lat="-27.99095" lon="-63.66882">
        <ele>154.428955</ele>
        <time>2005-12-12T18:58:01Z</time>
      </trkpt>
      <trkpt lat="-27.98997" lon="-63.66442">
        <ele>154.909546</ele>
        <time>2005-12-12T18:58:22Z</time>
      </trkpt>
      <trkpt lat="-27.98911" lon="-63.66058">
        <ele>154.909546</ele>
        <time>2005-12-12T18:58:40Z</time>
      </trkpt>
      <trkpt lat="-27.98849" lon="-63.65798">
        <ele>155.870972</ele>
        <time>2005-12-12T18:58:54Z</time>
      </trkpt>
      <trkpt lat="-27.98795" lon="-63.65547">
        <ele>153.948364</ele>
        <time>2005-12-12T18:59:06Z</time>
      </trkpt>
      <trkpt lat="-27.98716" lon="-63.652">
        <ele>152.986938</ele>
        <time>2005-12-12T18:59:23Z</time>
      </trkpt>
      <trkpt lat="-27.98606" lon="-63.64725">
        <ele>154.428955</ele>
        <time>2005-12-12T18:59:43Z</time>
      </trkpt>
      <trkpt lat="-27.98458" lon="-63.64067">
        <ele>152.025757</ele>
        <time>2005-12-12T19:00:09Z</time>
      </trkpt>
      <trkpt lat="-27.98389" lon="-63.63756">
        <ele>150.103027</ele>
        <time>2005-12-12T19:00:22Z</time>
      </trkpt>
      <trkpt lat="-27.98282" lon="-63.63283">
        <ele>151.064209</ele>
        <time>2005-12-12T19:00:41Z</time>
      </trkpt>
      <trkpt lat="-27.98138" lon="-63.62648">
        <ele>152.506348</ele>
        <time>2005-12-12T19:01:06Z</time>
      </trkpt>
      <trkpt lat="-27.98085" lon="-63.62417">
        <ele>153.948364</ele>
        <time>2005-12-12T19:01:16Z</time>
      </trkpt>
      <trkpt lat="-27.97986" lon="-63.61985">
        <ele>154.428955</ele>
        <time>2005-12-12T19:01:33Z</time>
      </trkpt>
      <trkpt lat="-27.97776" lon="-63.61054">
        <ele>153.467651</ele>
        <time>2005-12-12T19:02:09Z</time>
      </trkpt>
      <trkpt lat="-27.97606" lon="-63.60301">
        <ele>152.986938</ele>
        <time>2005-12-12T19:02:38Z</time>
      </trkpt>
      <trkpt lat="-27.97445" lon="-63.59584">
        <ele>152.025757</ele>
        <time>2005-12-12T19:03:06Z</time>
      </trkpt>
      <trkpt lat="-27.97287" lon="-63.58887">
        <ele>151.064209</ele>
        <time>2005-12-12T19:03:33Z</time>
      </trkpt>
      <trkpt lat="-27.97055" lon="-63.57865">
        <ele>148.661011</ele>
        <time>2005-12-12T19:04:12Z</time>
      </trkpt>
      <trkpt lat="-27.96967" lon="-63.57479">
        <ele>149.622314</ele>
        <time>2005-12-12T19:04:28Z</time>
      </trkpt>
      <trkpt lat="-27.96834" lon="-63.56895">
        <ele>151.064209</ele>
        <time>2005-12-12T19:04:53Z</time>
      </trkpt>
      <trkpt lat="-27.96711" lon="-63.56355">
        <ele>152.506348</ele>
        <time>2005-12-12T19:05:18Z</time>
      </trkpt>
      <trkpt lat="-27.96613" lon="-63.55917">
        <ele>153.467651</ele>
        <time>2005-12-12T19:05:37Z</time>
      </trkpt>
      <trkpt lat="-27.96508" lon="-63.55537">
        <ele>152.986938</ele>
        <time>2005-12-12T19:05:53Z</time>
      </trkpt>
      <trkpt lat="-27.9634" lon="-63.54928">
        <ele>156.351563</ele>
        <time>2005-12-12T19:06:17Z</time>
      </trkpt>
      <trkpt lat="-27.96096" lon="-63.54044">
        <ele>154.428955</ele>
        <time>2005-12-12T19:06:52Z</time>
      </trkpt>
      <trkpt lat="-27.95892" lon="-63.53297">
        <ele>152.986938</ele>
        <time>2005-12-12T19:07:21Z</time>
      </trkpt>
      <trkpt lat="-27.95744" lon="-63.5275">
        <ele>150.583618</ele>
        <time>2005-12-12T19:07:43Z</time>
      </trkpt>
      <trkpt lat="-27.9566" lon="-63.52437">
        <ele>150.103027</ele>
        <time>2005-12-12T19:07:57Z</time>
      </trkpt>
      <trkpt lat="-27.95591" lon="-63.52192">
        <ele>150.103027</ele>
        <time>2005-12-12T19:08:07Z</time>
      </trkpt>
      <trkpt lat="-27.9539" lon="-63.51445">
        <ele>149.141602</ele>
        <time>2005-12-12T19:08:36Z</time>
      </trkpt>
      <trkpt lat="-27.95137" lon="-63.50516">
        <ele>148.661011</ele>
        <time>2005-12-12T19:09:12Z</time>
      </trkpt>
      <trkpt lat="-27.95064" lon="-63.50259">
        <ele>150.103027</ele>
        <time>2005-12-12T19:09:23Z</time>
      </trkpt>
      <trkpt lat="-27.95021" lon="-63.50098">
        <ele>149.141602</ele>
        <time>2005-12-12T19:09:32Z</time>
      </trkpt>
      <trkpt lat="-27.94965" lon="-63.49894">
        <ele>151.544922</ele>
        <time>2005-12-12T19:09:46Z</time>
      </trkpt>
      <trkpt lat="-27.94918" lon="-63.49703">
        <ele>149.622314</ele>
        <time>2005-12-12T19:10:06Z</time>
      </trkpt>
      <trkpt lat="-27.9487" lon="-63.4952">
        <ele>147.699707</ele>
        <time>2005-12-12T19:10:22Z</time>
      </trkpt>
      <trkpt lat="-27.94817" lon="-63.49338">
        <ele>146.738403</ele>
        <time>2005-12-12T19:10:35Z</time>
      </trkpt>
      <trkpt lat="-27.94755" lon="-63.49111">
        <ele>143.85437</ele>
        <time>2005-12-12T19:10:48Z</time>
      </trkpt>
      <trkpt lat="-27.94725" lon="-63.48984">
        <ele>143.373657</ele>
        <time>2005-12-12T19:10:57Z</time>
      </trkpt>
      <trkpt lat="-27.94675" lon="-63.48797">
        <ele>142.893066</ele>
        <time>2005-12-12T19:11:13Z</time>
      </trkpt>
      <trkpt lat="-27.94613" lon="-63.48585">
        <ele>143.373657</ele>
        <time>2005-12-12T19:11:29Z</time>
      </trkpt>
      <trkpt lat="-27.94544" lon="-63.48336">
        <ele>141.45105</ele>
        <time>2005-12-12T19:11:42Z</time>
      </trkpt>
      <trkpt lat="-27.94478" lon="-63.48089">
        <ele>139.528442</ele>
        <time>2005-12-12T19:11:53Z</time>
      </trkpt>
      <trkpt lat="-27.9436" lon="-63.47649">
        <ele>137.125244</ele>
        <time>2005-12-12T19:12:11Z</time>
      </trkpt>
      <trkpt lat="-27.94177" lon="-63.46982">
        <ele>135.683105</ele>
        <time>2005-12-12T19:12:37Z</time>
      </trkpt>
      <trkpt lat="-27.93813" lon="-63.45628">
        <ele>133.760498</ele>
        <time>2005-12-12T19:13:30Z</time>
      </trkpt>
      <trkpt lat="-27.93634" lon="-63.44901">
        <ele>132.799316</ele>
        <time>2005-12-12T19:13:59Z</time>
      </trkpt>
      <trkpt lat="-27.93718" lon="-63.4463">
        <ele>134.241211</ele>
        <time>2005-12-12T19:14:12Z</time>
      </trkpt>
      <trkpt lat="-27.93768" lon="-63.44487">
        <ele>134.241211</ele>
        <time>2005-12-12T19:14:19Z</time>
      </trkpt>
      <trkpt lat="-27.93943" lon="-63.44182">
        <ele>134.721924</ele>
        <time>2005-12-12T19:14:35Z</time>
      </trkpt>
      <trkpt lat="-27.93971" lon="-63.44081">
        <ele>135.202515</ele>
        <time>2005-12-12T19:14:42Z</time>
      </trkpt>
      <trkpt lat="-27.93973" lon="-63.4401">
        <ele>137.125244</ele>
        <time>2005-12-12T19:14:50Z</time>
      </trkpt>
      <trkpt lat="-27.93973" lon="-63.43916">
        <ele>138.567261</ele>
        <time>2005-12-12T19:15:08Z</time>
      </trkpt>
      <trkpt lat="-27.93971" lon="-63.43892">
        <ele>138.086548</ele>
        <time>2005-12-12T19:15:12Z</time>
      </trkpt>
      <trkpt lat="-27.9395" lon="-63.43832">
        <ele>136.644653</ele>
        <time>2005-12-12T19:15:18Z</time>
      </trkpt>
      <trkpt lat="-27.93845" lon="-63.43663">
        <ele>134.721924</ele>
        <time>2005-12-12T19:15:34Z</time>
      </trkpt>
      <trkpt lat="-27.93699" lon="-63.43437">
        <ele>130.876709</ele>
        <time>2005-12-12T19:15:54Z</time>
      </trkpt>
      <trkpt lat="-27.93624" lon="-63.43341">
        <ele>131.3573</ele>
        <time>2005-12-12T19:16:07Z</time>
      </trkpt>
      <trkpt lat="-27.93607" lon="-63.43317">
        <ele>130.876709</ele>
        <time>2005-12-12T19:16:21Z</time>
      </trkpt>
      <trkpt lat="-27.93562" lon="-63.43253">
        <ele>129.915283</ele>
        <time>2005-12-12T19:16:42Z</time>
      </trkpt>
      <trkpt lat="-27.93562" lon="-63.4321">
        <ele>129.915283</ele>
        <time>2005-12-12T19:16:59Z</time>
      </trkpt>
      <trkpt lat="-27.93639" lon="-63.43141">
        <ele>129.915283</ele>
        <time>2005-12-12T19:17:10Z</time>
      </trkpt>
      <trkpt lat="-27.93815" lon="-63.42976">
        <ele>129.915283</ele>
        <time>2005-12-12T19:17:30Z</time>
      </trkpt>
      <trkpt lat="-27.94126" lon="-63.42697">
        <ele>129.915283</ele>
        <time>2005-12-12T19:18:02Z</time>
      </trkpt>
      <trkpt lat="-27.94255" lon="-63.42579">
        <ele>129.915283</ele>
        <time>2005-12-12T19:18:16Z</time>
      </trkpt>
      <trkpt lat="-27.94252" lon="-63.42557">
        <ele>131.3573</ele>
        <time>2005-12-12T19:18:20Z</time>
      </trkpt>
      <trkpt lat="-27.94218" lon="-63.4251">
        <ele>130.395996</ele>
        <time>2005-12-12T19:18:27Z</time>
      </trkpt>
      <trkpt lat="-27.94197" lon="-63.42444">
        <ele>130.876709</ele>
        <time>2005-12-12T19:18:33Z</time>
      </trkpt>
      <trkpt lat="-27.94184" lon="-63.42191">
        <ele>127.992554</ele>
        <time>2005-12-12T19:18:51Z</time>
      </trkpt>
      <trkpt lat="-27.94171" lon="-63.41948">
        <ele>127.031372</ele>
        <time>2005-12-12T19:19:03Z</time>
      </trkpt>
      <trkpt lat="-27.94145" lon="-63.41536">
        <ele>127.031372</ele>
        <time>2005-12-12T19:19:20Z</time>
      </trkpt>
      <trkpt lat="-27.94113" lon="-63.41188">
        <ele>124.628052</ele>
        <time>2005-12-12T19:19:33Z</time>
      </trkpt>
      <trkpt lat="-27.94036" lon="-63.40957">
        <ele>125.589355</ele>
        <time>2005-12-12T19:19:42Z</time>
      </trkpt>
      <trkpt lat="-27.93795" lon="-63.40362">
        <ele>125.108765</ele>
        <time>2005-12-12T19:20:06Z</time>
      </trkpt>
      <trkpt lat="-27.93405" lon="-63.39382">
        <ele>125.589355</ele>
        <time>2005-12-12T19:20:46Z</time>
      </trkpt>
      <trkpt lat="-27.93117" lon="-63.38669">
        <ele>128.473389</ele>
        <time>2005-12-12T19:21:15Z</time>
      </trkpt>
      <trkpt lat="-27.92716" lon="-63.37672">
        <ele>127.511963</ele>
        <time>2005-12-12T19:21:56Z</time>
      </trkpt>
      <trkpt lat="-27.92265" lon="-63.36549">
        <ele>128.473389</ele>
        <time>2005-12-12T19:22:42Z</time>
      </trkpt>
      <trkpt lat="-27.91892" lon="-63.35625">
        <ele>128.954102</ele>
        <time>2005-12-12T19:23:20Z</time>
      </trkpt>
      <trkpt lat="-27.91422" lon="-63.34455">
        <ele>131.3573</ele>
        <time>2005-12-12T19:24:08Z</time>
      </trkpt>
      <trkpt lat="-27.90999" lon="-63.33408">
        <ele>132.318604</ele>
        <time>2005-12-12T19:24:51Z</time>
      </trkpt>
      <trkpt lat="-27.90712" lon="-63.32704">
        <ele>130.876709</ele>
        <time>2005-12-12T19:25:20Z</time>
      </trkpt>
      <trkpt lat="-27.90298" lon="-63.31683">
        <ele>130.395996</ele>
        <time>2005-12-12T19:26:02Z</time>
      </trkpt>
      <trkpt lat="-27.89946" lon="-63.30822">
        <ele>131.837891</ele>
        <time>2005-12-12T19:26:37Z</time>
      </trkpt>
      <trkpt lat="-27.895" lon="-63.29719">
        <ele>134.241211</ele>
        <time>2005-12-12T19:27:22Z</time>
      </trkpt>
      <trkpt lat="-27.89137" lon="-63.28831">
        <ele>136.16394</ele>
        <time>2005-12-12T19:27:58Z</time>
      </trkpt>
      <trkpt lat="-27.88869" lon="-63.2817">
        <ele>135.202515</ele>
        <time>2005-12-12T19:28:25Z</time>
      </trkpt>
      <trkpt lat="-27.8854" lon="-63.27361">
        <ele>135.202515</ele>
        <time>2005-12-12T19:28:58Z</time>
      </trkpt>
      <trkpt lat="-27.88139" lon="-63.26383">
        <ele>135.202515</ele>
        <time>2005-12-12T19:29:38Z</time>
      </trkpt>
      <trkpt lat="-27.87766" lon="-63.25458">
        <ele>134.721924</ele>
        <time>2005-12-12T19:30:16Z</time>
      </trkpt>
      <trkpt lat="-27.87461" lon="-63.247">
        <ele>135.202515</ele>
        <time>2005-12-12T19:30:47Z</time>
      </trkpt>
      <trkpt lat="-27.87133" lon="-63.23891">
        <ele>135.202515</ele>
        <time>2005-12-12T19:31:20Z</time>
      </trkpt>
      <trkpt lat="-27.86774" lon="-63.23005">
        <ele>135.683105</ele>
        <time>2005-12-12T19:31:56Z</time>
      </trkpt>
      <trkpt lat="-27.86528" lon="-63.22454">
        <ele>133.279907</ele>
        <time>2005-12-12T19:32:19Z</time>
      </trkpt>
      <trkpt lat="-27.85993" lon="-63.21469">
        <ele>132.318604</ele>
        <time>2005-12-12T19:33:02Z</time>
      </trkpt>
      <trkpt lat="-27.8539" lon="-63.20362">
        <ele>133.279907</ele>
        <time>2005-12-12T19:33:50Z</time>
      </trkpt>
      <trkpt lat="-27.85101" lon="-63.19836">
        <ele>133.279907</ele>
        <time>2005-12-12T19:34:13Z</time>
      </trkpt>
      <trkpt lat="-27.84614" lon="-63.18941">
        <ele>134.721924</ele>
        <time>2005-12-12T19:34:52Z</time>
      </trkpt>
      <trkpt lat="-27.84217" lon="-63.18209">
        <ele>134.241211</ele>
        <time>2005-12-12T19:35:24Z</time>
      </trkpt>
      <trkpt lat="-27.83946" lon="-63.17705">
        <ele>133.760498</ele>
        <time>2005-12-12T19:35:46Z</time>
      </trkpt>
      <trkpt lat="-27.83618" lon="-63.17104">
        <ele>133.760498</ele>
        <time>2005-12-12T19:36:12Z</time>
      </trkpt>
      <trkpt lat="-27.83294" lon="-63.16506">
        <ele>133.279907</ele>
        <time>2005-12-12T19:36:38Z</time>
      </trkpt>
      <trkpt lat="-27.82989" lon="-63.15948">
        <ele>133.760498</ele>
        <time>2005-12-12T19:37:02Z</time>
      </trkpt>
      <trkpt lat="-27.827" lon="-63.15416">
        <ele>133.760498</ele>
        <time>2005-12-12T19:37:25Z</time>
      </trkpt>
      <trkpt lat="-27.82429" lon="-63.14937">
        <ele>133.760498</ele>
        <time>2005-12-12T19:37:46Z</time>
      </trkpt>
      <trkpt lat="-27.8209" lon="-63.14347">
        <ele>133.279907</ele>
        <time>2005-12-12T19:38:12Z</time>
      </trkpt>
      <trkpt lat="-27.81721" lon="-63.13684">
        <ele>134.241211</ele>
        <time>2005-12-12T19:38:41Z</time>
      </trkpt>
      <trkpt lat="-27.81333" lon="-63.12939">
        <ele>133.760498</ele>
        <time>2005-12-12T19:39:13Z</time>
      </trkpt>
      <trkpt lat="-27.80886" lon="-63.12085">
        <ele>133.279907</ele>
        <time>2005-12-12T19:39:50Z</time>
      </trkpt>
      <trkpt lat="-27.80603" lon="-63.11549">
        <ele>133.279907</ele>
        <time>2005-12-12T19:40:13Z</time>
      </trkpt>
      <trkpt lat="-27.80213" lon="-63.10867">
        <ele>134.241211</ele>
        <time>2005-12-12T19:40:43Z</time>
      </trkpt>
      <trkpt lat="-27.79781" lon="-63.10111">
        <ele>135.202515</ele>
        <time>2005-12-12T19:41:16Z</time>
      </trkpt>
      <trkpt lat="-27.79378" lon="-63.09403">
        <ele>134.241211</ele>
        <time>2005-12-12T19:41:47Z</time>
      </trkpt>
      <trkpt lat="-27.79226" lon="-63.09129">
        <ele>134.721924</ele>
        <time>2005-12-12T19:41:59Z</time>
      </trkpt>
      <trkpt lat="-27.79213" lon="-63.08914">
        <ele>133.760498</ele>
        <time>2005-12-12T19:42:07Z</time>
      </trkpt>
      <trkpt lat="-27.79221" lon="-63.08182">
        <ele>135.683105</ele>
        <time>2005-12-12T19:42:34Z</time>
      </trkpt>
      <trkpt lat="-27.7923" lon="-63.06991">
        <ele>135.683105</ele>
        <time>2005-12-12T19:43:18Z</time>
      </trkpt>
      <trkpt lat="-27.79241" lon="-63.05642">
        <ele>135.202515</ele>
        <time>2005-12-12T19:44:08Z</time>
      </trkpt>
      <trkpt lat="-27.79247" lon="-63.04532">
        <ele>134.721924</ele>
        <time>2005-12-12T19:44:49Z</time>
      </trkpt>
      <trkpt lat="-27.79251" lon="-63.03502">
        <ele>135.683105</ele>
        <time>2005-12-12T19:45:27Z</time>
      </trkpt>
      <trkpt lat="-27.79258" lon="-63.01799">
        <ele>135.683105</ele>
        <time>2005-12-12T19:46:30Z</time>
      </trkpt>
      <trkpt lat="-27.7926" lon="-63.00927">
        <ele>136.16394</ele>
        <time>2005-12-12T19:47:02Z</time>
      </trkpt>
      <trkpt lat="-27.7926" lon="-63.00653">
        <ele>137.125244</ele>
        <time>2005-12-12T19:47:12Z</time>
      </trkpt>
      <trkpt lat="-27.79204" lon="-63.00447">
        <ele>137.605835</ele>
        <time>2005-12-12T19:47:20Z</time>
      </trkpt>
      <trkpt lat="-27.78938" lon="-62.99743">
        <ele>136.644653</ele>
        <time>2005-12-12T19:47:48Z</time>
      </trkpt>
      <trkpt lat="-27.78505" lon="-62.98604">
        <ele>137.605835</ele>
        <time>2005-12-12T19:48:34Z</time>
      </trkpt>
      <trkpt lat="-27.78146" lon="-62.97662">
        <ele>136.16394</ele>
        <time>2005-12-12T19:49:12Z</time>
      </trkpt>
      <trkpt lat="-27.77779" lon="-62.96702">
        <ele>135.202515</ele>
        <time>2005-12-12T19:49:51Z</time>
      </trkpt>
      <trkpt lat="-27.77462" lon="-62.95878">
        <ele>135.683105</ele>
        <time>2005-12-12T19:50:24Z</time>
      </trkpt>
      <trkpt lat="-27.77363" lon="-62.95544">
        <ele>134.241211</ele>
        <time>2005-12-12T19:50:37Z</time>
      </trkpt>
      <trkpt lat="-27.77344" lon="-62.95243">
        <ele>132.799316</ele>
        <time>2005-12-12T19:50:48Z</time>
      </trkpt>
      <trkpt lat="-27.77273" lon="-62.93801">
        <ele>134.721924</ele>
        <time>2005-12-12T19:51:41Z</time>
      </trkpt>
      <trkpt lat="-27.77224" lon="-62.92716">
        <ele>135.202515</ele>
        <time>2005-12-12T19:52:21Z</time>
      </trkpt>
      <trkpt lat="-27.77164" lon="-62.91495">
        <ele>136.16394</ele>
        <time>2005-12-12T19:53:06Z</time>
      </trkpt>
      <trkpt lat="-27.77125" lon="-62.90656">
        <ele>136.644653</ele>
        <time>2005-12-12T19:53:37Z</time>
      </trkpt>
      <trkpt lat="-27.77073" lon="-62.89544">
        <ele>136.644653</ele>
        <time>2005-12-12T19:54:18Z</time>
      </trkpt>
      <trkpt lat="-27.77031" lon="-62.88619">
        <ele>137.125244</ele>
        <time>2005-12-12T19:54:52Z</time>
      </trkpt>
      <trkpt lat="-27.76983" lon="-62.87645">
        <ele>137.605835</ele>
        <time>2005-12-12T19:55:28Z</time>
      </trkpt>
      <trkpt lat="-27.76925" lon="-62.86426">
        <ele>137.605835</ele>
        <time>2005-12-12T19:56:13Z</time>
      </trkpt>
      <trkpt lat="-27.76885" lon="-62.85566">
        <ele>136.16394</ele>
        <time>2005-12-12T19:56:45Z</time>
      </trkpt>
      <trkpt lat="-27.76835" lon="-62.84534">
        <ele>134.721924</ele>
        <time>2005-12-12T19:57:23Z</time>
      </trkpt>
      <trkpt lat="-27.7679" lon="-62.83596">
        <ele>135.202515</ele>
        <time>2005-12-12T19:57:58Z</time>
      </trkpt>
      <trkpt lat="-27.76754" lon="-62.82867">
        <ele>136.16394</ele>
        <time>2005-12-12T19:58:25Z</time>
      </trkpt>
      <trkpt lat="-27.76702" lon="-62.81789">
        <ele>137.125244</ele>
        <time>2005-12-12T19:59:05Z</time>
      </trkpt>
      <trkpt lat="-27.76651" lon="-62.80731">
        <ele>136.644653</ele>
        <time>2005-12-12T19:59:44Z</time>
      </trkpt>
      <trkpt lat="-27.76614" lon="-62.79974">
        <ele>138.567261</ele>
        <time>2005-12-12T20:00:12Z</time>
      </trkpt>
      <trkpt lat="-27.76571" lon="-62.78946">
        <ele>140.489868</ele>
        <time>2005-12-12T20:00:50Z</time>
      </trkpt>
      <trkpt lat="-27.76535" lon="-62.77863">
        <ele>140.489868</ele>
        <time>2005-12-12T20:01:30Z</time>
      </trkpt>
      <trkpt lat="-27.76498" lon="-62.76727">
        <ele>140.970459</ele>
        <time>2005-12-12T20:02:12Z</time>
      </trkpt>
      <trkpt lat="-27.76473" lon="-62.75942">
        <ele>140.009155</ele>
        <time>2005-12-12T20:02:41Z</time>
      </trkpt>
      <trkpt lat="-27.76438" lon="-62.75007">
        <ele>140.009155</ele>
        <time>2005-12-12T20:03:16Z</time>
      </trkpt>
      <trkpt lat="-27.76408" lon="-62.74092">
        <ele>139.528442</ele>
        <time>2005-12-12T20:03:50Z</time>
      </trkpt>
      <trkpt lat="-27.76363" lon="-62.72743">
        <ele>135.683105</ele>
        <time>2005-12-12T20:04:40Z</time>
      </trkpt>
      <trkpt lat="-27.7634" lon="-62.7206">
        <ele>133.279907</ele>
        <time>2005-12-12T20:05:05Z</time>
      </trkpt>
      <trkpt lat="-27.7631" lon="-62.71095">
        <ele>130.876709</ele>
        <time>2005-12-12T20:05:41Z</time>
      </trkpt>
      <trkpt lat="-27.76264" lon="-62.69471">
        <ele>130.395996</ele>
        <time>2005-12-12T20:06:41Z</time>
      </trkpt>
    </trkseg>
  </trk>
</gpx>